Flight Track Log - Related Links

Times and Time Zones

All times are in EDT time to prevent confusion due to time zone crossing. See the RPA3343 flight status page for this flight to view local times or setup timezone preferences in your user account.

Time Position Orientation Groundspeed Altitude Reporting Facility
EDT Latitude Longitude Course Direction KTS MPH feet Rate Location/Type
Wed 03:07:54 PM 38.8908 -76.9653 81° East 180 207 2,000  Level Washington Center
Wed 03:08:52 PM 38.9067 -76.8747 77° East 216 249 4,700 3,051 Climbing Washington Center
Wed 03:09:00 PM 39.0331 -76.5174 67° East  Level FlightAware Approximate
Wed 03:09:52 PM 38.9158 -76.7708 83° East 257 296 8,000  Level Washington Center
Wed 03:10:00 PM 39.0856 -76.3891 61° Northeast  Level FlightAware Approximate
Wed 03:10:52 PM 38.9356 -76.6644 77° East 278 320 10,900  Level Washington Center
Wed 03:11:00 PM 39.1219 -76.2562 57° Northeast  Level FlightAware Approximate
Wed 03:11:53 PM 38.9822 -76.5689 58° Northeast 307 353 13,500  Level Washington Center
Wed 03:12:00 PM 39.1590 -76.1265 83° East  Level FlightAware Approximate
Wed 03:12:54 PM 39.0353 -76.4628 57° Northeast 324 373 14,900  Level Washington Center
Wed 03:13:00 PM 39.1730 -75.9825 81° East  Level FlightAware Approximate
Wed 03:13:52 PM 39.0922 -76.3431 58° Northeast 358 412 17,300  Level Washington Center
Wed 03:14:53 PM 39.1494 -76.2178 59° Northeast 383 441 19,000 1,820 Climbing Washington Center
Wed 03:15:54 PM 39.1708 -76.0708 79° East 400 460 21,000 1,884 Climbing Washington Center
Wed 03:16:54 PM 39.1900 -75.9211 81° East 411 473 22,800 1,729 Climbing Washington Center
Wed 03:17:52 PM 39.2611 -75.7953 54° Northeast 414 476 24,400 1,613 Climbing Washington Center
Wed 03:18:53 PM 39.3489 -75.6800 45° Northeast 428 493 26,000 1,426 Climbing Washington Center
Wed 03:19:54 PM 39.4364 -75.5647 45° Northeast 433 498 27,300 1,327 Climbing Washington Center
Wed 03:22:21 PM 39.6761 -75.2536 45° Northeast 466 536 30,600 1,304 Climbing New York Center
Wed 03:23:21 PM 39.7533 -75.1372 49° Northeast 466 536 31,800 1,200 Climbing New York Center
Wed 03:24:21 PM 39.8414 -75.0100 48° Northeast 471 542 33,000 600 Climbing New York Center
Wed 03:25:21 PM 39.9292 -74.8856 47° Northeast 471 542 33,000  Level New York Center
Wed 03:26:21 PM 40.0228 -74.7692 44° Northeast 466 536 33,000  Level New York Center
Wed 03:27:21 PM 40.1378 -74.7022 24° Northeast 452 520 33,000  Level New York Center
Wed 03:28:21 PM 40.2600 -74.6575 16° North 445 512 33,000  Level New York Center
Wed 03:29:21 PM 40.3844 -74.6156 14° North 445 512 33,000  Level New York Center
Wed 03:30:21 PM 40.5067 -74.5733 15° North 445 512 33,000  Level New York Center
Wed 03:31:21 PM 40.6286 -74.5336 14° North 445 512 33,000  Level New York Center
Wed 03:32:21 PM 40.7531 -74.4911 15° North 450 518 33,000  Level New York Center
Wed 03:33:21 PM 40.8772 -74.4511 14° North 455 524 33,000  Level New York Center
Wed 03:35:05 PM 41.0936 -74.3817 14° North 454 522 33,000  Level Boston Center
Wed 03:36:06 PM 41.2153 -74.3414 14° North 454 522 33,000  Level Boston Center
Wed 03:37:06 PM 41.3494 -74.2900 16° North 454 522 33,000  Level Boston Center
Wed 03:38:07 PM 41.4753 -74.2467 14° North 454 522 33,000 -353 Level Boston Center
Wed 03:39:05 PM 41.5861 -74.2136 13° North 454 522 32,300 -814 Descending Boston Center
Wed 03:40:05 PM 41.7119 -74.1725 14° North 454 522 31,400 -893 Descending Boston Center
Wed 03:41:06 PM 41.8461 -74.1094 19° North 454 522 30,500 -1,091 Descending Boston Center
Wed 03:42:06 PM 41.9314 -73.9778 49° Northeast 449 517 29,200 -1,240 Descending Boston Center
Wed 03:43:07 PM 42.0083 -73.8314 55° Northeast 449 517 28,000 -1,119 Descending Boston Center
Wed 03:44:04 PM 42.0703 -73.7153 54° Northeast 456 525 27,000 -1,169 Descending Boston Center
Wed 03:45:05 PM 42.1511 -73.5575 55° Northeast 469 540 25,700 -1,388 Descending Boston Center
Wed 03:46:05 PM 42.2233 -73.4186 55° Northeast 463 533 24,200 -1,587 Descending Boston Center
Wed 03:47:06 PM 42.2994 -73.2736 55° Northeast 447 514 22,500 -1,426 Descending Boston Center
Wed 03:48:07 PM 42.3628 -73.1453 56° Northeast 439 505 21,300 -1,311 Descending Boston Center
Wed 03:49:05 PM 42.4281 -73.0167 55° Northeast 433 498 19,900 -1,160 Descending Boston Center
Wed 03:50:06 PM 42.4953 -72.8878 55° Northeast 416 479 19,000 -645 Descending Boston Center
Wed 03:51:06 PM 42.5647 -72.7475 56° Northeast 416 479 18,600 -1,438 Descending Boston Center
Wed 03:52:07 PM 42.6233 -72.6375 54° Northeast 411 473 16,100 -2,420 Descending Boston Center
Wed 03:53:05 PM 42.6817 -72.5164 57° Northeast 404 465 13,800 -2,067 Descending Boston Center
Wed 03:54:06 PM 42.7400 -72.4033 55° Northeast 382 440 12,000 -1,361 Descending Boston Center
Wed 03:55:04 PM 42.7900 -72.2986 57° Northeast 351 404 11,100 -814 Descending Boston Center
Wed 03:56:04 PM 42.8022 -72.1742 82° East 318 366 10,400 -893 Descending Boston Center
Wed 03:57:05 PM 42.8125 -72.0467 84° East 311 358 9,300 -984 Descending Boston Center
Wed 03:58:06 PM 42.8161 -71.9419 87° East 311 358 8,400 -1,091 Descending Boston Center
Wed 03:59:06 PM 42.8050 -71.8175 97° East 308 354 7,100 -1,250 Descending Boston Center
Wed 04:00:06 PM 42.7942 -71.7186 98° East 302 348 5,900 -1,220 Descending Boston Center
Wed 04:01:04 PM 42.7850 -71.6028 96° East 291 335 4,700 -1,109 Descending Boston Center
Wed 04:02:05 PM 42.7989 -71.5206 77° East 257 296 3,700 -984 Descending Boston Center
Wed 04:03:06 PM 42.8211 -71.4294 72° East 228 262 2,700 -934 Descending Boston Center
Wed 04:04:07 PM 42.8561 -71.3892 40° Northeast 167 192 1,800 -958 Descending Boston Center
Wed 04:05:05 PM 42.8981 -71.4142 336° Northwest 137 158 800 -763 Descending Boston Center
Wed 04:06:05 PM 42.9294 -71.4278 342° North 137 158 300 -500 Descending Boston Center

Login

Don't have an account? Register now (free) for customized features, flight alerts, and more!